Ramstein Air Base ETAR

Flugplatz Daten

Name: Ramstein Air Base

Ident: ETAR

Lat: 49,43690109

Long: 7,600279808

Platzhöhe: 776 ft

IataCode: RMS

City: Ramstein

Homepage: http://www.ramstein.af.mil/

Metar

2021/10/16 16:56
ETAR 161656Z AUTO 00000KT 9999 OVC048 11/10 A3012 RMK AO2 SLP209 T01080103

Taf

2021/10/16 10:07
TAF ETAR 161000Z 1610/1716 04006KT 9999 SCT030 BKN050 QNH3010INS
BECMG 1617/1618 08006KT 9999 SCT025 BKN050 QNH3016INS
BECMG 1619/1620 VRB04KT 6000 BR FEW025 QNH3015INS
BECMG 1623/1624 VRB04KT 0600 FG VV002 QNH3014INS
BECMG 1707/1708 VRB04KT 8000 BR BKN010 QNH3014INS
BECMG 1711/1712 18009KT 9999 NSW SCT025 QNH3017INS TX13/1613Z TN02/1703Z
Gewünschte Webcam nicht vorhanden? Dann fügen Sie eine hinzu. Sie wird dann so schnell wie möglich freigeschaltet
Url: Title: